createdAt,value
2022-12-13T00:01:33.297Z,1.20
2022-12-13T00:04:02.267Z,1.25
2022-12-13T00:06:29.990Z,1.10
2022-12-13T00:08:56.471Z,1.20
2022-12-13T00:11:22.748Z,1.27
2022-12-13T00:13:48.994Z,1.13
2022-12-13T00:16:17.706Z,1.30
2022-12-13T00:18:46.591Z,1.35
2022-12-13T00:21:15.381Z,1.15
2022-12-13T00:23:41.572Z,1.10
2022-12-13T00:26:11.889Z,1.33
2022-12-13T00:28:38.831Z,1.10
2022-12-13T00:31:43.104Z,1.00
2022-12-13T00:33:52.079Z,1.10
2022-12-13T00:36:18.345Z,1.02
2022-12-13T00:38:44.814Z,1.17
2022-12-13T00:41:16.312Z,1.40
2022-12-13T00:43:43.062Z,1.30
2022-12-13T00:46:15.077Z,1.42
2022-12-13T00:48:41.671Z,1.30
2022-12-13T00:51:09.314Z,1.10
2022-12-13T00:53:35.570Z,1.10
2022-12-13T00:56:01.844Z,1.13
2022-12-13T00:58:27.906Z,1.30
2022-12-13T01:01:06.175Z,1.05
2022-12-13T01:03:32.782Z,1.30
2022-12-13T01:06:16.141Z,1.00
2022-12-13T01:08:43.035Z,1.30
2022-12-13T01:11:09.595Z,1.25
2022-12-13T01:13:36.284Z,1.20
2022-12-13T01:16:04.428Z,1.27
2022-12-13T01:18:31.445Z,1.17
2022-12-13T01:21:12.121Z,1.30
2022-12-13T01:23:39.058Z,1.20
2022-12-13T01:26:06.658Z,1.00
2022-12-13T01:28:33.273Z,1.27
2022-12-13T01:31:02.441Z,1.38
2022-12-13T01:33:29.268Z,1.10
2022-12-13T01:35:55.547Z,1.15
2022-12-13T01:38:26.427Z,1.40
2022-12-13T01:40:59.231Z,1.10
2022-12-13T01:43:27.761Z,1.17
2022-12-13T01:45:53.954Z,1.20
2022-12-13T01:48:35.095Z,1.30
2022-12-13T01:51:04.277Z,1.23
2022-12-13T01:53:34.333Z,1.10
2022-12-13T01:56:06.589Z,1.23
2022-12-13T01:58:34.152Z,1.17
2022-12-13T02:01:00.736Z,1.27
2022-12-13T02:03:27.023Z,1.20
2022-12-13T02:05:56.958Z,1.30
2022-12-13T02:08:28.266Z,1.15
2022-12-13T02:10:54.812Z,1.10
2022-12-13T02:13:20.995Z,1.20
2022-12-13T02:16:32.255Z,1.10
2022-12-13T02:19:26.643Z,1.10
2022-12-13T02:22:01.317Z,1.25
2022-12-13T02:25:07.813Z,1.10
2022-12-13T02:27:45.402Z,1.42
2022-12-13T02:30:38.666Z,1.30
2022-12-13T02:33:07.496Z,1.30
2022-12-13T02:36:04.611Z,1.00
2022-12-13T02:38:55.198Z,1.10
2022-12-13T02:41:33.694Z,1.10
2022-12-13T02:44:22.221Z,1.10
2022-12-13T02:47:00.559Z,1.10
2022-12-13T02:49:31.818Z,1.10
2022-12-13T02:51:59.736Z,1.10
2022-12-13T02:54:25.844Z,1.00
2022-12-13T02:56:59.519Z,1.00
2022-12-13T02:59:33.325Z,1.05
2022-12-13T03:02:21.752Z,1.20
2022-12-13T03:05:34.593Z,1.02
2022-12-13T03:08:18.549Z,1.08
2022-12-13T03:11:05.201Z,1.10
2022-12-13T03:13:48.025Z,1.25
2022-12-13T03:16:33.923Z,1.00
2022-12-13T03:19:03.359Z,1.00
2022-12-13T03:21:36.422Z,1.15
2022-12-13T03:24:05.408Z,1.02
2022-12-13T03:26:31.778Z,0.98
2022-12-13T03:28:58.273Z,1.05
2022-12-13T03:31:24.377Z,1.10
2022-12-13T03:33:50.475Z,1.08
2022-12-13T03:36:18.317Z,1.00
2022-12-13T03:38:45.822Z,1.05
2022-12-13T03:41:16.412Z,1.10
2022-12-13T03:43:42.863Z,1.00
2022-12-13T03:46:09.383Z,1.30
2022-12-13T03:48:35.589Z,1.00
2022-12-13T03:51:02.209Z,1.10
2022-12-13T03:53:32.337Z,1.20
2022-12-13T03:56:04.974Z,1.00
2022-12-13T03:58:35.806Z,0.80
2022-12-13T04:01:12.077Z,1.15
2022-12-13T04:03:39.601Z,0.90
2022-12-13T04:06:06.573Z,1.10
2022-12-13T04:08:33.543Z,0.88
2022-12-13T04:10:59.688Z,1.10
2022-12-13T04:13:31.868Z,1.00
2022-12-13T04:15:58.034Z,1.10
2022-12-13T04:18:24.209Z,1.10
2022-12-13T04:20:50.708Z,1.05
2022-12-13T04:23:16.897Z,1.08
2022-12-13T04:25:44.112Z,0.88
2022-12-13T04:28:10.288Z,1.40
2022-12-13T04:30:36.862Z,0.90
2022-12-13T04:33:03.525Z,1.02
2022-12-13T04:35:29.662Z,1.20
2022-12-13T04:37:56.712Z,0.80
2022-12-13T04:40:22.844Z,0.82
2022-12-13T04:42:49.466Z,1.20
2022-12-13T04:45:22.137Z,0.90
2022-12-13T04:47:48.590Z,1.05
2022-12-13T04:50:15.799Z,0.85
2022-12-13T04:52:41.838Z,0.90
2022-12-13T04:55:08.892Z,1.20
2022-12-13T04:57:34.969Z,1.17
2022-12-13T05:00:04.332Z,1.00
2022-12-13T05:02:31.299Z,1.20
2022-12-13T05:04:57.416Z,1.10
2022-12-13T05:07:27.182Z,1.20
2022-12-13T05:09:56.225Z,1.08
2022-12-13T05:12:26.222Z,1.15
2022-12-13T05:14:52.832Z,1.02
2022-12-13T05:17:23.589Z,0.80
2022-12-13T05:19:51.171Z,1.20
2022-12-13T05:22:20.197Z,1.08
2022-12-13T05:24:48.362Z,1.23
2022-12-13T05:27:39.762Z,1.00
2022-12-13T05:30:19.047Z,1.10
2022-12-13T05:33:01.647Z,0.90
2022-12-13T05:35:28.193Z,1.20
2022-12-13T05:37:55.283Z,0.90
2022-12-13T05:40:26.686Z,0.90
2022-12-13T05:43:22.279Z,1.00
2022-12-13T05:46:04.726Z,1.00
2022-12-13T05:48:32.474Z,0.90
2022-12-13T05:51:24.488Z,1.05
2022-12-13T05:54:06.693Z,0.93
2022-12-13T05:56:34.138Z,0.90
2022-12-13T05:59:33.756Z,0.88
2022-12-13T06:02:21.401Z,0.80
2022-12-13T06:04:52.603Z,2.13
2022-12-13T06:07:19.353Z,2.90
2022-12-13T06:09:47.265Z,3.72
2022-12-13T06:12:31.259Z,4.65
2022-12-13T06:15:01.650Z,2.25
2022-12-13T06:17:37.930Z,2.30
2022-12-13T06:20:23.892Z,2.00
2022-12-13T06:23:03.331Z,1.90
2022-12-13T06:25:36.943Z,2.30
2022-12-13T06:28:05.235Z,2.65
2022-12-13T06:30:42.868Z,2.70
2022-12-13T06:33:23.182Z,2.03
2022-12-13T06:35:55.368Z,1.98
2022-12-13T06:38:31.451Z,1.80
2022-12-13T06:43:56.568Z,2.63
2022-12-13T06:46:24.949Z,3.00
2022-12-13T06:49:01.005Z,3.72
2022-12-13T06:51:33.506Z,3.83
2022-12-13T06:54:05.960Z,4.40
2022-12-13T06:56:33.069Z,4.65
2022-12-13T06:59:03.736Z,2.83
2022-12-13T07:01:53.806Z,3.15
2022-12-13T07:04:41.396Z,3.40
2022-12-13T07:07:13.939Z,4.32
2022-12-13T07:09:42.027Z,3.78
2022-12-13T07:12:18.568Z,3.85
2022-12-13T07:15:03.877Z,3.92
2022-12-13T07:17:39.792Z,3.28
2022-12-13T07:20:09.297Z,3.30
2022-12-13T07:22:43.285Z,2.70
2022-12-13T07:25:26.983Z,3.10
2022-12-13T07:28:06.687Z,3.20
2022-12-13T07:30:42.051Z,3.60
2022-12-13T07:33:22.679Z,3.10
2022-12-13T07:36:13.038Z,2.80
2022-12-13T07:38:54.621Z,2.55
2022-12-13T07:41:23.066Z,2.70
2022-12-13T07:43:55.847Z,2.45
2022-12-13T07:46:32.825Z,2.10
2022-12-13T07:49:06.111Z,2.63
2022-12-13T07:51:36.406Z,2.35
2022-12-13T07:54:08.713Z,2.45
2022-12-13T07:56:35.198Z,2.45
2022-12-13T07:59:04.332Z,2.42
2022-12-13T08:01:33.808Z,2.25
2022-12-13T08:04:02.525Z,2.08
2022-12-13T08:06:28.568Z,2.30
2022-12-13T08:08:56.517Z,2.08
2022-12-13T08:11:26.301Z,2.20
2022-12-13T08:13:56.214Z,2.30
2022-12-13T08:16:48.309Z,2.10
2022-12-13T08:19:15.275Z,2.70
2022-12-13T08:21:55.236Z,2.85
2022-12-13T08:24:28.734Z,2.60
2022-12-13T08:27:01.555Z,2.97
2022-12-13T08:29:35.620Z,2.65
2022-12-13T08:32:09.435Z,2.70
2022-12-13T08:34:40.669Z,3.30
2022-12-13T08:37:32.134Z,11.77
2022-12-13T08:39:58.303Z,2.70
2022-12-13T08:42:27.604Z,2.30
2022-12-13T08:44:53.739Z,3.60
2022-12-13T08:47:26.361Z,2.63
2022-12-13T08:49:54.339Z,2.90
2022-12-13T08:52:22.101Z,2.58
2022-12-13T08:54:48.196Z,2.33
2022-12-13T08:57:15.308Z,2.60
2022-12-13T08:59:41.437Z,2.78
2022-12-13T09:02:14.545Z,2.50
2022-12-13T09:04:42.113Z,2.75
2022-12-13T09:07:09.306Z,4.78
2022-12-13T09:09:37.704Z,3.30
2022-12-13T09:12:10.772Z,9.32
2022-12-13T09:14:50.575Z,9.95
2022-12-13T09:17:24.125Z,9.20
2022-12-13T09:19:51.901Z,4.03
2022-12-13T09:22:33.720Z,3.03
2022-12-13T09:25:03.038Z,3.08
2022-12-13T09:27:30.279Z,2.70
2022-12-13T09:29:58.520Z,2.78
2022-12-13T09:32:26.878Z,2.42
2022-12-13T09:34:53.345Z,2.30
2022-12-13T09:37:23.167Z,2.50
2022-12-13T09:39:54.942Z,2.60
2022-12-13T09:42:30.320Z,2.38
2022-12-13T09:45:22.557Z,2.60
2022-12-13T09:48:01.087Z,2.40
2022-12-13T09:50:37.305Z,2.25
2022-12-13T09:53:12.131Z,2.50
2022-12-13T09:55:51.677Z,2.20
2022-12-13T09:58:27.106Z,2.38
2022-12-13T10:00:56.133Z,2.53
2022-12-13T10:03:24.191Z,2.40
2022-12-13T10:06:00.928Z,1.90
2022-12-13T10:08:40.153Z,1.77
2022-12-13T10:11:06.722Z,1.90
2022-12-13T10:13:55.271Z,1.90
2022-12-13T10:16:39.663Z,4.20
2022-12-13T10:19:35.887Z,2.40
2022-12-13T10:22:04.584Z,3.30
2022-12-13T10:25:05.096Z,2.22
2022-12-13T10:27:43.755Z,2.20
2022-12-13T10:30:26.167Z,2.40
2022-12-13T10:33:03.327Z,1.90
2022-12-13T10:36:12.821Z,2.17
2022-12-13T10:38:45.269Z,1.98
2022-12-13T10:41:41.428Z,1.98
2022-12-13T10:44:25.074Z,1.73
2022-12-13T10:47:03.013Z,2.00
2022-12-13T10:49:59.740Z,1.90
2022-12-13T10:52:31.047Z,1.55
2022-12-13T10:55:22.679Z,1.75
2022-12-13T10:57:56.147Z,2.15
2022-12-13T11:00:46.784Z,2.30
2022-12-13T11:03:30.342Z,1.75
2022-12-13T11:06:15.750Z,2.33
2022-12-13T11:08:42.304Z,2.05
2022-12-13T11:11:11.693Z,2.17
2022-12-13T11:13:44.962Z,2.20
2022-12-13T11:16:33.271Z,1.95
2022-12-13T11:19:07.213Z,2.60
2022-12-13T11:21:36.535Z,2.42
2022-12-13T11:24:06.040Z,2.00
2022-12-13T11:26:38.557Z,2.60
2022-12-13T11:29:23.583Z,2.53
2022-12-13T11:32:08.954Z,2.22
2022-12-13T11:34:43.955Z,2.38
2022-12-13T11:37:26.008Z,2.47
2022-12-13T11:40:08.873Z,2.00
2022-12-13T11:42:42.616Z,2.20
2022-12-13T11:45:46.799Z,2.03
2022-12-13T11:48:23.587Z,2.40
2022-12-13T11:50:53.033Z,2.25
2022-12-13T11:53:57.510Z,2.58
2022-12-13T11:56:32.482Z,2.63
2022-12-13T11:59:26.305Z,2.20
2022-12-13T12:02:38.581Z,2.65
2022-12-13T12:05:16.488Z,2.30
2022-12-13T12:08:33.741Z,2.65
2022-12-13T12:11:20.241Z,2.08
2022-12-13T12:14:24.573Z,2.08
2022-12-13T12:16:56.638Z,2.00
2022-12-13T12:19:25.714Z,2.40
2022-12-13T12:22:13.264Z,1.90
2022-12-13T12:24:59.337Z,2.30
2022-12-13T12:27:30.704Z,2.38
2022-12-13T12:30:24.166Z,1.88
2022-12-13T12:32:59.304Z,1.95
2022-12-13T12:35:45.967Z,1.85
2022-12-13T12:38:34.619Z,1.92
2022-12-13T12:41:17.749Z,2.05
2022-12-13T12:43:49.079Z,2.30
2022-12-13T12:46:46.876Z,2.10
2022-12-13T12:49:43.564Z,2.17
2022-12-13T12:52:50.025Z,2.05
2022-12-13T12:55:48.628Z,2.40
2022-12-13T12:58:32.475Z,2.03
2022-12-13T13:01:19.176Z,2.28
2022-12-13T13:03:47.729Z,2.30
2022-12-13T13:06:29.230Z,2.30
2022-12-13T13:09:00.862Z,2.17
2022-12-13T13:11:30.644Z,2.10
2022-12-13T13:14:06.394Z,2.20
2022-12-13T13:16:39.743Z,2.17
2022-12-13T13:19:32.284Z,2.10
2022-12-13T13:22:01.410Z,2.20
2022-12-13T13:24:30.827Z,2.13
2022-12-13T13:27:32.275Z,1.83
2022-12-13T13:30:25.338Z,1.90
2022-12-13T13:32:54.669Z,2.00
2022-12-13T13:35:30.227Z,2.30
2022-12-13T13:37:59.149Z,2.13
2022-12-13T13:40:31.198Z,2.13
2022-12-13T13:43:08.239Z,2.20
2022-12-13T13:45:56.862Z,2.17
2022-12-13T13:48:48.493Z,2.10
2022-12-13T13:51:24.422Z,1.92
2022-12-13T13:53:56.599Z,2.58
2022-12-13T13:56:43.994Z,2.33
2022-12-13T13:59:38.148Z,2.28
2022-12-13T14:02:46.106Z,1.90
2022-12-13T14:05:50.002Z,2.30
2022-12-13T14:08:29.619Z,2.20
2022-12-13T14:11:19.412Z,2.28
2022-12-13T14:14:22.083Z,2.15
2022-12-13T14:16:55.103Z,2.30
2022-12-13T14:19:58.874Z,1.88
2022-12-13T14:22:25.452Z,2.13
2022-12-13T14:25:24.848Z,2.30
2022-12-13T14:28:11.278Z,2.08
2022-12-13T14:30:43.239Z,2.55
2022-12-13T14:33:23.909Z,2.25
2022-12-13T14:35:55.908Z,2.13
2022-12-13T14:38:25.207Z,1.95
2022-12-13T14:40:55.087Z,2.40
2022-12-13T14:43:34.162Z,2.28
2022-12-13T14:46:06.016Z,2.25
2022-12-13T14:48:52.004Z,2.33
2022-12-13T14:51:30.366Z,2.35
2022-12-13T14:53:58.232Z,2.50
2022-12-13T14:56:28.457Z,2.35
2022-12-13T14:59:01.938Z,2.17
2022-12-13T15:01:31.998Z,2.10
2022-12-13T15:04:17.136Z,2.83
2022-12-13T15:06:48.260Z,2.00
2022-12-13T15:09:16.493Z,2.03
2022-12-13T15:11:44.575Z,2.42
2022-12-13T15:14:21.465Z,2.40
2022-12-13T15:16:54.223Z,2.85
2022-12-13T15:19:30.099Z,2.53
2022-12-13T15:22:12.712Z,2.63
2022-12-13T15:24:40.922Z,2.50
2022-12-13T15:27:08.296Z,2.60
2022-12-13T15:29:36.337Z,2.20
2022-12-13T15:32:15.866Z,2.30
2022-12-13T15:34:43.270Z,2.50
2022-12-13T15:37:28.874Z,2.40
2022-12-13T15:40:01.524Z,2.35
2022-12-13T15:42:32.998Z,2.50
2022-12-13T15:45:21.961Z,2.58
2022-12-13T15:47:49.648Z,2.92
2022-12-13T15:50:42.505Z,2.85
2022-12-13T15:53:25.721Z,2.47
2022-12-13T15:55:53.347Z,2.47
2022-12-13T15:58:35.744Z,2.55
2022-12-13T16:01:05.959Z,2.35
2022-12-13T16:03:46.854Z,2.78
2022-12-13T16:06:22.382Z,3.00
2022-12-13T16:08:56.596Z,2.75
2022-12-13T16:11:35.650Z,2.55
2022-12-13T16:14:30.493Z,2.60
2022-12-13T16:17:08.120Z,2.88
2022-12-13T16:19:36.187Z,2.88
2022-12-13T16:22:08.633Z,3.00
2022-12-13T16:24:39.366Z,3.17
2022-12-13T16:27:08.704Z,2.50
2022-12-13T16:29:37.196Z,2.92
2022-12-13T16:32:08.033Z,3.20
2022-12-13T16:34:39.103Z,2.90
2022-12-13T16:37:08.503Z,2.80
2022-12-13T16:39:53.691Z,2.75
2022-12-13T16:42:20.287Z,3.20
2022-12-13T16:44:46.713Z,3.13
2022-12-13T16:47:22.208Z,3.38
2022-12-13T16:49:51.662Z,3.28
2022-12-13T16:52:27.326Z,3.33
2022-12-13T16:54:55.142Z,3.20
2022-12-13T16:57:22.477Z,3.30
2022-12-13T16:59:49.516Z,3.28
2022-12-13T17:02:17.926Z,2.90
2022-12-13T17:04:44.743Z,3.17
2022-12-13T17:07:10.976Z,3.38
2022-12-13T17:09:38.389Z,2.90
2022-12-13T17:12:06.135Z,3.30
2022-12-13T17:14:37.304Z,3.28
2022-12-13T17:17:04.356Z,3.65
2022-12-13T17:19:33.065Z,3.30
2022-12-13T17:22:00.149Z,3.70
2022-12-13T17:24:26.816Z,3.63
2022-12-13T17:26:56.824Z,3.30
2022-12-13T17:29:25.172Z,3.53
2022-12-13T17:31:53.663Z,3.33
2022-12-13T17:34:20.541Z,3.83
2022-12-13T17:36:49.557Z,3.15
2022-12-13T17:39:15.776Z,3.83
2022-12-13T17:41:55.168Z,3.55
2022-12-13T17:44:26.221Z,3.53
2022-12-13T17:46:54.954Z,3.50
2022-12-13T17:49:21.808Z,3.83
2022-12-13T17:51:52.709Z,3.80
2022-12-13T17:54:24.044Z,3.63
2022-12-13T17:56:52.239Z,3.70
2022-12-13T17:59:20.491Z,3.63
2022-12-13T18:01:47.892Z,3.20
2022-12-13T18:04:15.838Z,3.13
2022-12-13T18:06:42.892Z,2.58
2022-12-13T18:09:11.759Z,2.60
2022-12-13T18:11:40.098Z,2.35
2022-12-13T18:14:08.643Z,2.78
2022-12-13T18:16:39.304Z,2.75
2022-12-13T18:19:08.793Z,2.63
2022-12-13T18:21:37.123Z,2.85
2022-12-13T18:24:05.543Z,2.70
2022-12-13T18:26:32.170Z,2.67
2022-12-13T18:29:01.069Z,2.50
2022-12-13T18:31:28.376Z,2.75
2022-12-13T18:33:56.272Z,2.10
2022-12-13T18:36:24.277Z,2.28
2022-12-13T18:38:51.344Z,2.50
2022-12-13T18:41:27.528Z,2.25
2022-12-13T18:43:59.660Z,2.45
2022-12-13T18:46:26.834Z,2.30
2022-12-13T18:48:53.858Z,2.38
2022-12-13T18:51:20.692Z,2.17
2022-12-13T18:53:47.027Z,2.10
2022-12-13T18:56:18.900Z,2.10
2022-12-13T18:58:49.618Z,2.17
2022-12-13T19:01:18.015Z,2.20
2022-12-13T19:03:46.083Z,2.30
2022-12-13T19:06:19.084Z,2.30
2022-12-13T19:08:49.619Z,2.30
2022-12-13T19:11:15.790Z,1.88
2022-12-13T19:13:42.488Z,1.92
2022-12-13T19:16:12.307Z,2.00
2022-12-13T19:18:38.723Z,2.28
2022-12-13T19:21:11.161Z,1.73
2022-12-13T19:23:40.732Z,1.98
2022-12-13T19:26:09.166Z,2.40
2022-12-13T19:28:36.531Z,2.28
2022-12-13T19:31:04.386Z,2.20
2022-12-13T19:33:31.055Z,2.10
2022-12-13T19:35:57.527Z,2.00
2022-12-13T19:38:24.042Z,2.15
2022-12-13T19:40:50.403Z,2.30
2022-12-13T19:43:16.517Z,1.88
2022-12-13T19:45:48.675Z,2.00
2022-12-13T19:48:15.748Z,1.92
2022-12-13T19:50:43.585Z,1.98
2022-12-13T19:53:11.271Z,2.08
2022-12-13T19:55:44.721Z,1.95
2022-12-13T19:58:11.209Z,1.80
2022-12-13T20:00:37.980Z,2.22
2022-12-13T20:03:04.230Z,2.17
2022-12-13T20:05:30.693Z,2.00
2022-12-13T20:07:58.747Z,2.03
2022-12-13T20:10:25.714Z,2.17
2022-12-13T20:12:52.346Z,2.13
2022-12-13T20:15:19.134Z,2.00
2022-12-13T20:17:45.271Z,2.05
2022-12-13T20:20:12.690Z,2.20
2022-12-13T20:22:39.430Z,2.10
2022-12-13T20:25:09.135Z,2.17
2022-12-13T20:27:35.865Z,2.40
2022-12-13T20:30:03.738Z,1.80
2022-12-13T20:32:30.300Z,2.00
2022-12-13T20:34:57.266Z,2.00
2022-12-13T20:37:30.119Z,2.00
2022-12-13T20:39:57.376Z,2.00
2022-12-13T20:42:25.301Z,2.10
2022-12-13T20:44:51.783Z,2.22
2022-12-13T20:47:18.363Z,2.30
2022-12-13T20:49:48.690Z,1.88
2022-12-13T20:52:16.790Z,2.00
2022-12-13T20:54:43.484Z,2.10
2022-12-13T20:57:09.556Z,2.10
2022-12-13T20:59:38.356Z,1.80
2022-12-13T21:02:04.790Z,2.38
2022-12-13T21:04:31.160Z,1.98
2022-12-13T21:06:57.831Z,1.95
2022-12-13T21:09:25.037Z,2.17
2022-12-13T21:11:51.774Z,2.13
2022-12-13T21:14:27.819Z,2.40
2022-12-13T21:17:06.858Z,2.00
2022-12-13T21:19:39.777Z,2.00
2022-12-13T21:22:07.894Z,2.13
2022-12-13T21:24:34.112Z,1.88
2022-12-13T21:27:00.541Z,2.00
2022-12-13T21:29:26.709Z,1.90
2022-12-13T21:31:59.482Z,2.13
2022-12-13T21:34:25.987Z,2.20
2022-12-13T21:36:54.739Z,1.98
2022-12-13T21:39:24.537Z,2.20
2022-12-13T21:41:51.800Z,2.00
2022-12-13T21:44:21.100Z,1.95
2022-12-13T21:49:35.403Z,1.88
2022-12-13T21:52:02.160Z,2.47
2022-12-13T21:54:28.598Z,2.33
2022-12-13T21:57:15.855Z,2.10
2022-12-13T21:59:42.678Z,1.98
2022-12-13T22:02:16.460Z,2.10
2022-12-13T22:04:48.726Z,2.10
2022-12-13T22:07:20.773Z,2.40
2022-12-13T22:09:48.244Z,2.20
2022-12-13T22:12:33.240Z,2.17
2022-12-13T22:15:00.472Z,2.30
2022-12-13T22:17:34.692Z,2.40
2022-12-13T22:20:05.309Z,2.25
2022-12-13T22:22:31.621Z,2.22
2022-12-13T22:24:57.946Z,2.13
2022-12-13T22:27:24.908Z,2.03
2022-12-13T22:29:52.252Z,2.20
2022-12-13T22:32:22.163Z,2.17
2022-12-13T22:34:49.257Z,2.10
2022-12-13T22:37:16.171Z,2.00
2022-12-13T22:39:42.469Z,2.10
2022-12-13T22:42:09.090Z,2.25
2022-12-13T22:44:36.004Z,1.92
2022-12-13T22:47:02.727Z,2.10
2022-12-13T22:49:29.999Z,2.00
2022-12-13T22:51:57.174Z,2.10
2022-12-13T22:54:24.137Z,2.22
2022-12-13T22:56:52.009Z,2.38
2022-12-13T22:59:19.960Z,2.03
2022-12-13T23:01:48.296Z,2.42
2022-12-13T23:04:17.167Z,2.30
2022-12-13T23:06:43.786Z,2.63
2022-12-13T23:09:15.216Z,2.20
2022-12-13T23:12:00.232Z,2.10
2022-12-13T23:14:32.257Z,2.22
2022-12-13T23:17:00.199Z,2.35
2022-12-13T23:19:52.822Z,2.20
2022-12-13T23:22:13.806Z,2.50
2022-12-13T23:24:40.317Z,2.03
2022-12-13T23:27:07.593Z,2.20
2022-12-13T23:29:34.087Z,2.00
2022-12-13T23:32:01.028Z,1.95
2022-12-13T23:34:27.825Z,2.00
2022-12-13T23:36:54.218Z,2.35
2022-12-13T23:39:20.757Z,2.40
2022-12-13T23:41:46.980Z,2.47
2022-12-13T23:44:13.420Z,2.13
2022-12-13T23:46:40.053Z,2.47
2022-12-13T23:49:06.828Z,2.58
2022-12-13T23:51:34.309Z,2.28
2022-12-13T23:54:01.473Z,2.40
2022-12-13T23:56:28.812Z,2.28
2022-12-13T23:58:56.516Z,2.50
